Abington, Pennsylvania
Current Conditions -  °F | °C
As of 7:54 PM on Wednesday 17 Dec 2014 (Local Time) from KPNE Reporting Station
Clear Clear  
Wind Chill:   Ceiling: Unl
Heat Index:   Visibility: 10mi
Dew Point: -3°   Wind: 10mph
Humidity: 51%   Direction: 280°W
Pressure: 29.97"   Gusts: NA
Location:  40.12°N, 75.12°W
Report Text: KPNE 180054Z AUTO 28009KT 10SM CLR 06/M03 A2997 RMK AO2 SLP147 T00611033 TSNO $
Loading
Personal Weather Stations






























Interactive Weather Map New forecast layout! Learn more

10-Day Weather Forecast

Advertisements
Track Severe Weather on mobile